Time;durP1;ratioP1;P1;durP2;ratioP2;P2;SDS_P1;SDS_P2;PMS_P1;PMS_P2;Temp;Humidity;BMP_temperature;BMP_pressure;BME280_temperature;BME280_humidity;BME280_pressure;Samples;Min_cycle;Max_cycle;Signal;HPM_P1;HPM_P2
2022/08/05 00:01:23;;;;;;;2.93;2.00;;;28.80;70.30;;;;;;4902097;29;20455;-70
2022/08/05 00:03:50;;;;;;;2.40;1.93;;;28.80;69.50;;;;;;4902166;29;20441;-71
2022/08/05 00:06:17;;;;;;;1.83;1.73;;;28.80;69.50;;;;;;4918925;29;20432;-71
2022/08/05 00:08:43;;;;;;;2.33;2.13;;;28.70;69.50;;;;;;4918612;29;20806;-71
2022/08/05 00:11:12;;;;;;;4.33;1.93;;;28.80;69.70;;;;;;4901870;29;21029;-71
2022/08/05 00:13:42;;;;;;;3.10;2.57;;;28.80;69.70;;;;;;4917550;29;20437;-71
2022/08/05 00:16:11;;;;;;;2.30;2.07;;;28.70;69.70;;;;;;4901939;29;20416;-71
2022/08/05 00:18:47;;;;;;;2.73;2.10;;;28.70;69.70;;;;;;4917280;29;20445;-71
2022/08/05 00:21:16;;;;;;;2.13;1.93;;;28.70;69.80;;;;;;4900808;29;20452;-71
2022/08/05 00:23:44;;;;;;;1.93;1.77;;;28.70;69.90;;;;;;4916779;29;20503;-71
2022/08/05 00:26:11;;;;;;;2.87;2.23;;;28.60;69.80;;;;;;4917629;29;20412;-71
2022/08/05 00:28:39;;;;;;;2.40;2.17;;;28.60;69.80;;;;;;4917249;29;20463;-71
2022/08/05 00:31:06;;;;;;;2.40;1.80;;;28.60;69.90;;;;;;4901906;29;20437;-71
2022/08/05 00:33:33;;;;;;;2.50;2.03;;;28.60;69.90;;;;;;4918468;29;20946;-71
2022/08/05 00:35:59;;;;;;;3.10;2.20;;;28.60;69.90;;;;;;4901297;29;20429;-71
2022/08/05 00:38:26;;;;;;;3.53;2.20;;;28.50;69.90;;;;;;4917281;29;20425;-71
2022/08/05 00:40:55;;;;;;;2.10;1.83;;;28.50;70.00;;;;;;4901521;29;20445;-71
2022/08/05 00:43:30;;;;;;;2.33;2.00;;;28.50;70.00;;;;;;4915606;29;20433;-71
2022/08/05 00:45:58;;;;;;;2.97;2.00;;;28.50;70.00;;;;;;4901403;29;20570;-71
2022/08/05 00:48:28;;;;;;;2.13;1.93;;;28.40;70.00;;;;;;4900423;29;20935;-71
2022/08/05 00:50:54;;;;;;;2.37;1.90;;;28.40;70.00;;;;;;4917922;29;20515;-71
2022/08/05 00:53:22;;;;;;;2.37;2.17;;;28.40;70.10;;;;;;4916669;29;20448;-71
2022/08/05 00:55:49;;;;;;;1.87;1.73;;;28.40;70.10;;;;;;4916913;29;20504;-71
2022/08/05 00:58:16;;;;;;;2.20;2.00;;;28.40;70.20;;;;;;4918009;29;20456;-71
2022/08/05 01:00:47;;;;;;;3.40;2.10;;;28.30;70.10;;;;;;4886300;29;20424;-71
2022/08/05 01:03:15;;;;;;;2.27;2.07;;;28.40;70.30;;;;;;4901328;29;20520;-71
2022/08/05 01:05:43;;;;;;;2.23;2.03;;;28.30;70.20;;;;;;4916917;29;20536;-71
2022/08/05 01:08:14;;;;;;;2.27;1.80;;;28.30;70.30;;;;;;4916764;29;20437;-71
2022/08/05 01:10:49;;;;;;;3.70;2.20;;;28.30;70.30;;;;;;4901036;29;20445;-71
2022/08/05 01:13:45;;;;;;;2.33;2.13;;;28.30;70.40;;;;;;4917614;29;20480;-71
2022/08/05 01:16:39;;;;;;;3.80;2.00;;;28.30;70.40;;;;;;4926890;29;20509;-72
2022/08/05 01:19:22;;;;;;;2.43;2.23;;;28.20;70.40;;;;;;4899366;29;20440;-72
2022/08/05 01:22:07;;;;;;;3.53;2.07;;;28.20;70.50;;;;;;4899987;29;20856;-72
2022/08/05 01:24:49;;;;;;;3.57;2.40;;;28.20;70.60;;;;;;4900841;29;20899;-72
2022/08/05 01:27:26;;;;;;;2.93;2.70;;;28.20;70.60;;;;;;4916427;29;20429;-72
2022/08/05 01:29:59;;;;;;;3.20;2.53;;;28.20;70.80;;;;;;4899862;29;20960;-72
2022/08/05 01:32:29;;;;;;;2.67;1.90;;;28.10;70.70;;;;;;4915058;29;20471;-72
2022/08/05 01:35:05;;;;;;;2.43;2.23;;;28.10;70.70;;;;;;4900003;29;20584;-72
2022/08/05 01:37:40;;;;;;;2.57;2.37;;;28.10;70.80;;;;;;4916239;29;20535;-72
2022/08/05 01:40:07;;;;;;;3.53;2.67;;;28.10;70.90;;;;;;4915353;29;20420;-72
2022/08/05 01:42:36;;;;;;;3.60;2.20;;;28.10;71.00;;;;;;4884095;29;20492;-72
2022/08/05 01:45:05;;;;;;;2.40;2.20;;;28.00;70.90;;;;;;4899761;29;20447;-72
2022/08/05 01:47:35;;;;;;;2.43;2.23;;;28.00;71.00;;;;;;4915063;29;20429;-72
2022/08/05 01:50:07;;;;;;;2.30;2.10;;;28.00;71.00;;;;;;4915807;29;20424;-72
2022/08/05 01:52:35;;;;;;;2.77;2.40;;;28.00;71.10;;;;;;4915160;29;20544;-72
2022/08/05 01:55:08;;;;;;;3.10;2.27;;;28.00;71.20;;;;;;4916121;29;20425;-72
2022/08/05 01:57:42;;;;;;;2.57;2.07;;;28.00;71.30;;;;;;4899601;29;20421;-72
2022/08/05 02:00:09;;;;;;;2.40;2.00;;;27.90;71.20;;;;;;4883669;29;20455;-72
2022/08/05 02:02:42;;;;;;;4.27;2.43;;;27.90;71.20;;;;;;4898752;29;20455;-72
2022/08/05 02:05:13;;;;;;;2.17;2.00;;;27.90;71.30;;;;;;4914929;29;20445;-72
2022/08/05 02:07:42;;;;;;;2.47;2.27;;;27.90;71.30;;;;;;4915156;29;20425;-72
2022/08/05 02:10:10;;;;;;;3.33;2.40;;;27.90;71.40;;;;;;4898850;29;20449;-72
2022/08/05 02:12:52;;;;;;;3.10;2.53;;;27.90;71.40;;;;;;4898802;29;20499;-72
2022/08/05 02:15:34;;;;;;;4.30;1.97;;;27.80;71.40;;;;;;4914453;29;20543;-72
2022/08/05 02:18:08;;;;;;;2.77;2.57;;;27.80;71.50;;;;;;4915653;29;20480;-72
2022/08/05 02:20:48;;;;;;;3.50;2.47;;;27.80;71.50;;;;;;4915820;29;20428;-72
2022/08/05 02:23:21;;;;;;;3.30;2.23;;;27.80;71.60;;;;;;4914464;29;20436;-72
2022/08/05 02:25:49;;;;;;;2.93;2.63;;;27.80;71.70;;;;;;4914725;29;20417;-72
2022/08/05 02:28:24;;;;;;;4.40;2.73;;;27.80;71.70;;;;;;4915409;29;20492;-72
2022/08/05 02:30:55;;;;;;;3.53;2.50;;;27.80;71.80;;;;;;4914364;29;20457;-72
2022/08/05 02:33:23;;;;;;;2.80;2.17;;;27.70;71.80;;;;;;4907167;29;20584;-72
2022/08/05 02:35:56;;;;;;;2.90;2.40;;;27.70;71.80;;;;;;4899021;29;21001;-71
2022/08/05 02:38:29;;;;;;;7.07;2.50;;;27.70;71.90;;;;;;4914224;29;20413;-72
2022/08/05 02:40:58;;;;;;;4.53;2.37;;;27.70;72.00;;;;;;4914500;29;20540;-72
2022/08/05 02:43:28;;;;;;;2.70;2.30;;;27.70;72.20;;;;;;4898972;29;20425;-73
2022/08/05 02:45:55;;;;;;;4.00;2.63;;;27.70;72.30;;;;;;4918337;29;20428;-72
2022/08/05 02:48:22;;;;;;;4.17;2.80;;;27.60;72.40;;;;;;4918064;29;20432;-72
2022/08/05 02:50:50;;;;;;;3.50;2.93;;;27.60;72.40;;;;;;4919526;29;20471;-72
2022/08/05 02:53:19;;;;;;;3.40;2.57;;;27.60;72.50;;;;;;4917842;29;20479;-72
2022/08/05 02:55:49;;;;;;;3.87;2.43;;;27.60;72.50;;;;;;4903106;29;20437;-72
2022/08/05 02:58:23;;;;;;;3.63;2.60;;;27.60;72.50;;;;;;4919091;29;20460;-72
2022/08/05 03:00:51;;;;;;;4.53;3.13;;;27.60;72.60;;;;;;4919057;29;21269;-73
2022/08/05 03:03:19;;;;;;;4.20;3.57;;;27.50;72.60;;;;;;4918124;29;20479;-73
2022/08/05 03:05:49;;;;;;;5.80;2.50;;;27.50;72.60;;;;;;4918040;29;20427;-73
2022/08/05 03:08:21;;;;;;;3.10;2.73;;;27.50;72.70;;;;;;4918627;29;20417;-72
2022/08/05 03:10:50;;;;;;;4.63;3.00;;;27.50;72.70;;;;;;4919222;29;20450;-72
2022/08/05 03:13:16;;;;;;;3.87;3.10;;;27.50;72.80;;;;;;4917483;29;20539;-72
2022/08/05 03:15:47;;;;;;;5.20;2.93;;;27.40;72.70;;;;;;4918932;29;20436;-73
2022/08/05 03:18:13;;;;;;;3.43;2.83;;;27.50;73.10;;;;;;4902272;29;20799;-72
2022/08/05 03:20:42;;;;;;;4.27;3.00;;;27.40;73.00;;;;;;4917870;29;20467;-72
2022/08/05 03:23:10;;;;;;;4.50;2.90;;;27.40;73.40;;;;;;4902092;29;20456;-72
2022/08/05 03:25:39;;;;;;;3.43;2.50;;;27.40;73.80;;;;;;4918765;29;20989;-72
2022/08/05 03:28:07;;;;;;;2.93;2.63;;;27.40;74.00;;;;;;4917731;29;20918;-72
2022/08/05 03:30:38;;;;;;;4.57;3.07;;;27.40;74.00;;;;;;4917705;29;20402;-72
2022/08/05 03:33:09;;;;;;;4.73;2.57;;;27.30;74.00;;;;;;4901352;29;20504;-72
2022/08/05 03:35:36;;;;;;;4.77;2.77;;;27.30;74.00;;;;;;4901909;29;20440;-73
2022/08/05 03:38:04;;;;;;;2.53;2.33;;;27.30;74.20;;;;;;4901573;29;20461;-72
2022/08/05 03:40:30;;;;;;;4.43;2.60;;;27.30;74.20;;;;;;4901699;29;20436;-72
2022/08/05 03:43:01;;;;;;;3.80;2.70;;;27.30;74.20;;;;;;4917224;29;20420;-73
2022/08/05 03:45:27;;;;;;;2.80;2.60;;;27.20;74.10;;;;;;4901477;29;20482;-72
2022/08/05 03:47:55;;;;;;;2.70;2.50;;;27.30;74.20;;;;;;4918197;29;20428;-72
2022/08/05 03:50:23;;;;;;;2.67;2.40;;;27.20;74.20;;;;;;4917253;29;20471;-72
2022/08/05 03:53:08;;;;;;;3.47;2.80;;;27.20;74.20;;;;;;4916878;29;20468;-72
2022/08/05 03:55:38;;;;;;;4.40;2.67;;;27.20;74.30;;;;;;4917198;29;20464;-72
2022/08/05 03:58:10;;;;;;;2.90;2.50;;;27.20;74.30;;;;;;4917068;29;20459;-72
2022/08/05 04:00:38;;;;;;;2.93;2.40;;;27.20;74.40;;;;;;4917263;29;20511;-73
2022/08/05 04:03:06;;;;;;;2.77;2.40;;;27.10;74.20;;;;;;4915890;29;20540;-72
2022/08/05 04:05:38;;;;;;;2.60;2.40;;;27.10;74.20;;;;;;4901595;29;20930;-72
2022/08/05 04:08:08;;;;;;;3.67;2.70;;;27.10;74.40;;;;;;4901194;29;20437;-72
2022/08/05 04:10:36;;;;;;;2.93;2.63;;;27.10;74.30;;;;;;4917044;29;20409;-72
2022/08/05 04:13:02;;;;;;;2.77;2.10;;;27.10;74.40;;;;;;4916463;29;20476;-72
2022/08/05 04:15:29;;;;;;;2.30;2.10;;;27.00;74.30;;;;;;4917874;29;20433;-72
2022/08/05 04:18:01;;;;;;;3.83;3.00;;;27.00;74.50;;;;;;4916468;29;20425;-72
2022/08/05 04:20:32;;;;;;;3.70;2.50;;;27.00;74.40;;;;;;4901337;29;20489;-72
2022/08/05 04:23:00;;;;;;;2.87;2.40;;;27.00;74.50;;;;;;4917681;29;20468;-72
2022/08/05 04:25:31;;;;;;;2.60;2.37;;;27.00;74.50;;;;;;4901082;29;20930;-72
2022/08/05 04:28:00;;;;;;;2.90;2.50;;;27.00;74.50;;;;;;4900821;29;20487;-71
2022/08/05 04:30:28;;;;;;;3.73;2.20;;;27.00;74.60;;;;;;4900950;29;20484;-71
2022/08/05 04:32:54;;;;;;;2.30;2.10;;;27.00;74.60;;;;;;4916258;29;20471;-71
2022/08/05 04:35:20;;;;;;;3.30;2.33;;;27.00;74.50;;;;;;4897667;29;20466;-71
2022/08/05 04:37:46;;;;;;;2.30;2.10;;;26.90;74.60;;;;;;4910508;29;20440;-71
2022/08/05 04:40:15;;;;;;;3.33;2.40;;;26.90;74.80;;;;;;4916602;29;20512;-72
2022/08/05 04:42:44;;;;;;;2.73;2.30;;;26.90;74.80;;;;;;4917342;29;20208;-72
2022/08/05 04:45:12;;;;;;;2.33;2.13;;;26.90;74.80;;;;;;4916113;29;20432;-73
2022/08/05 04:47:41;;;;;;;2.73;2.33;;;26.90;74.80;;;;;;4916711;29;20425;-70
2022/08/05 04:50:14;;;;;;;2.93;2.30;;;26.90;74.90;;;;;;4915853;29;20523;-71
2022/08/05 04:52:40;;;;;;;3.23;2.60;;;26.80;74.90;;;;;;4906048;29;20468;-71
2022/08/05 04:55:09;;;;;;;2.97;2.20;;;26.80;75.00;;;;;;4914803;29;20425;-71
2022/08/05 04:57:37;;;;;;;3.03;2.60;;;26.80;75.00;;;;;;4914780;29;20420;-71
2022/08/05 05:00:05;;;;;;;3.17;2.87;;;26.80;75.00;;;;;;4900291;29;20954;-71
2022/08/05 05:02:31;;;;;;;3.83;2.93;;;26.80;75.00;;;;;;4915978;29;20449;-71
2022/08/05 05:04:57;;;;;;;3.77;2.80;;;26.80;75.20;;;;;;4916709;29;20539;-71
2022/08/05 05:07:25;;;;;;;3.13;2.83;;;26.70;75.00;;;;;;4915281;29;20584;-71
2022/08/05 05:09:51;;;;;;;3.27;2.97;;;26.70;75.20;;;;;;4899442;29;20487;-71
2022/08/05 05:12:23;;;;;;;3.70;3.33;;;26.70;75.10;;;;;;4899848;29;20501;-71
2022/08/05 05:14:53;;;;;;;3.67;3.37;;;26.70;75.10;;;;;;4915839;29;20448;-71
2022/08/05 05:17:19;;;;;;;3.90;3.60;;;26.70;75.20;;;;;;4900024;29;20423;-71
2022/08/05 05:19:45;;;;;;;4.00;3.40;;;26.70;75.30;;;;;;4915812;29;20918;-71
2022/08/05 05:22:16;;;;;;;3.70;3.40;;;26.60;75.30;;;;;;4915327;29;20901;-71
2022/08/05 05:24:42;;;;;;;4.03;3.63;;;26.60;75.30;;;;;;4915369;29;20512;-71
2022/08/05 05:27:09;;;;;;;4.20;3.80;;;26.60;75.40;;;;;;4899425;29;20428;-71
2022/08/05 05:29:39;;;;;;;4.03;3.57;;;26.60;76.30;;;;;;4915913;29;20413;-71
2022/08/05 05:32:05;;;;;;;3.53;3.23;;;26.60;75.60;;;;;;4917110;29;20474;-71
2022/08/05 05:34:36;;;;;;;5.03;4.37;;;26.60;75.60;;;;;;4916979;29;20524;-71
2022/08/05 05:37:02;;;;;;;6.20;4.43;;;26.60;75.70;;;;;;4915377;29;21013;-71
2022/08/05 05:39:30;;;;;;;3.83;3.50;;;26.60;75.80;;;;;;4905767;29;21057;-71
2022/08/05 05:41:56;;;;;;;4.87;3.57;;;26.60;75.90;;;;;;4927020;29;20469;-71
2022/08/05 05:44:22;;;;;;;3.80;3.40;;;26.50;75.90;;;;;;4916707;29;20432;-71
2022/08/05 05:46:51;;;;;;;5.43;4.47;;;26.50;75.90;;;;;;4916769;29;20221;-71
2022/08/05 05:49:20;;;;;;;4.43;4.03;;;26.50;76.00;;;;;;4916507;29;20421;-71
2022/08/05 05:51:46;;;;;;;4.27;3.97;;;26.50;76.10;;;;;;4900107;29;20495;-71
2022/08/05 05:54:14;;;;;;;4.70;4.30;;;26.50;76.20;;;;;;4915678;29;20437;-71
2022/08/05 05:56:40;;;;;;;4.50;3.70;;;26.50;76.10;;;;;;4916755;29;20466;-71
2022/08/05 05:59:07;;;;;;;4.90;4.40;;;26.50;76.20;;;;;;4899653;29;20803;-71
2022/08/05 06:01:35;;;;;;;4.40;4.00;;;26.40;76.20;;;;;;4899995;29;20977;-71
2022/08/05 06:04:01;;;;;;;4.27;3.90;;;26.40;76.20;;;;;;4899579;29;20969;-71
2022/08/05 06:06:28;;;;;;;4.47;4.17;;;26.40;76.30;;;;;;4916682;29;20411;-71
2022/08/05 06:08:54;;;;;;;4.90;4.17;;;26.40;76.40;;;;;;4916352;29;20451;-71
2022/08/05 06:11:22;;;;;;;3.97;3.67;;;26.40;76.50;;;;;;4915425;29;20532;-71
2022/08/05 06:13:50;;;;;;;4.63;4.23;;;26.40;76.50;;;;;;4899376;29;20472;-71
2022/08/05 06:16:16;;;;;;;4.97;4.50;;;26.40;76.50;;;;;;4899247;29;20488;-71
2022/08/05 06:18:42;;;;;;;4.70;4.40;;;26.30;76.70;;;;;;4898925;29;20445;-71
2022/08/05 06:21:10;;;;;;;6.40;4.70;;;26.30;76.80;;;;;;4915048;29;20448;-71
2022/08/05 06:23:39;;;;;;;5.23;4.60;;;26.30;76.90;;;;;;4899796;29;20433;-71
2022/08/05 06:26:37;;;;;;;5.87;5.37;;;26.30;77.80;;;;;;4889445;29;20951;-71
2022/08/05 06:29:06;;;;;;;5.90;5.40;;;26.30;77.00;;;;;;4916233;29;20540;-71
2022/08/05 06:31:32;;;;;;;9.63;7.47;;;26.30;77.00;;;;;;4916083;29;20441;-71
2022/08/05 06:34:01;;;;;;;6.87;6.13;;;26.20;77.00;;;;;;4915050;29;20487;-71
2022/08/05 06:36:27;;;;;;;7.80;7.00;;;26.20;77.10;;;;;;4898695;29;20445;-71
2022/08/05 06:38:53;;;;;;;7.73;6.93;;;26.20;77.10;;;;;;4915137;29;20780;-71
2022/08/05 06:41:23;;;;;;;7.93;7.13;;;26.20;77.20;;;;;;4915983;29;20428;-70
2022/08/05 06:43:49;;;;;;;9.23;8.33;;;26.20;77.20;;;;;;4914696;29;20480;-70
2022/08/05 06:46:15;;;;;;;8.50;7.60;;;26.10;77.20;;;;;;4915790;29;20449;-70
2022/08/05 06:48:45;;;;;;;9.80;8.87;;;26.10;77.20;;;;;;4914802;29;20792;-71
2022/08/05 06:51:13;;;;;;;9.23;8.33;;;26.10;77.20;;;;;;4914799;29;20856;-71
2022/08/05 06:53:42;;;;;;;9.53;8.67;;;26.10;77.20;;;;;;4914557;29;20824;-71
2022/08/05 06:56:08;;;;;;;10.07;9.17;;;26.10;77.30;;;;;;4914447;29;20467;-70
2022/08/05 06:58:38;;;;;;;9.80;9.00;;;26.10;77.30;;;;;;4913640;29;20432;-71
2022/08/05 07:01:05;;;;;;;10.17;9.30;;;26.10;77.30;;;;;;4914466;29;20494;-72
2022/08/05 07:03:34;;;;;;;9.60;8.70;;;26.10;77.30;;;;;;4914093;29;21010;-71
2022/08/05 07:06:03;;;;;;;9.17;8.33;;;26.00;77.20;;;;;;4914591;29;20421;-71
2022/08/05 07:08:31;;;;;;;9.70;8.67;;;26.00;77.10;;;;;;4915380;29;20475;-71
2022/08/05 07:10:57;;;;;;;9.77;8.50;;;26.00;77.10;;;;;;4914272;29;20472;-71
2022/08/05 07:18:57;;;;;;;8.47;7.67;;;25.90;76.90;;;;;;4914310;29;20468;-71
2022/08/05 07:21:23;;;;;;;8.33;7.27;;;25.90;76.90;;;;;;4913995;29;20448;-71
2022/08/05 07:23:52;;;;;;;8.23;7.43;;;25.90;77.00;;;;;;4915256;29;20428;-71
2022/08/05 07:26:18;;;;;;;8.83;7.20;;;25.90;77.00;;;;;;4898852;29;20429;-71
2022/08/05 07:28:44;;;;;;;7.50;6.80;;;25.90;77.00;;;;;;4898767;29;20440;-71
2022/08/05 07:31:10;;;;;;;6.10;5.50;;;25.90;77.00;;;;;;4901576;29;20449;-71
2022/08/05 07:33:36;;;;;;;6.33;5.73;;;25.90;77.00;;;;;;4901525;29;20467;-71
2022/08/05 07:36:05;;;;;;;6.30;5.70;;;25.80;76.90;;;;;;4918894;29;20436;-71
2022/08/05 07:38:31;;;;;;;6.30;5.70;;;25.80;76.80;;;;;;4900628;29;20428;-71
2022/08/05 07:40:57;;;;;;;5.77;5.27;;;25.80;76.80;;;;;;4917915;29;20441;-71
2022/08/05 07:43:23;;;;;;;5.20;4.70;;;25.80;76.80;;;;;;4886383;29;20968;-71
2022/08/05 07:45:51;;;;;;;4.23;3.93;;;25.80;76.90;;;;;;4918847;29;20433;-71
2022/08/05 07:48:17;;;;;;;6.63;4.97;;;25.80;76.90;;;;;;4901854;29;20236;-71
2022/08/05 07:50:43;;;;;;;4.90;4.30;;;25.80;76.80;;;;;;4917488;29;20950;-71
2022/08/05 07:53:12;;;;;;;6.30;4.03;;;25.80;76.90;;;;;;4918856;29;20535;-71
2022/08/05 07:55:38;;;;;;;5.77;4.57;;;25.70;76.80;;;;;;4917358;29;20508;-71
2022/08/05 07:58:04;;;;;;;4.23;3.70;;;25.70;76.80;;;;;;4917660;29;20452;-71
2022/08/05 08:00:32;;;;;;;4.77;4.20;;;25.70;76.80;;;;;;4901245;29;20519;-70
2022/08/05 08:02:59;;;;;;;3.77;3.47;;;25.70;76.80;;;;;;4898115;29;20517;-71
2022/08/05 08:05:26;;;;;;;4.50;4.03;;;25.60;76.70;;;;;;4928686;29;20444;-71
2022/08/05 08:07:54;;;;;;;9.00;3.60;;;25.60;76.60;;;;;;4918475;29;20473;-71
2022/08/05 08:10:25;;;;;;;3.57;3.27;;;25.60;76.60;;;;;;4918484;29;20519;-71
2022/08/05 08:12:51;;;;;;;4.10;3.70;;;25.60;76.50;;;;;;4918054;29;20511;-71
2022/08/05 08:15:17;;;;;;;3.77;3.47;;;25.60;76.50;;;;;;4917008;29;20532;-71
2022/08/05 08:17:44;;;;;;;3.87;3.50;;;25.60;76.50;;;;;;4916986;29;21051;-71
2022/08/05 08:20:12;;;;;;;4.93;3.80;;;25.60;76.40;;;;;;4918465;29;20420;-71
2022/08/05 08:22:41;;;;;;;3.50;3.20;;;25.60;76.40;;;;;;4916834;29;20470;-71
2022/08/05 08:25:07;;;;;;;5.70;3.23;;;25.60;77.20;;;;;;4918301;29;20760;-71
2022/08/05 08:27:36;;;;;;;3.00;2.70;;;25.60;76.40;;;;;;4917691;29;20436;-71
2022/08/05 08:30:23;;;;;;;3.57;3.27;;;25.50;76.30;;;;;;4897336;29;20440;-71
2022/08/05 08:32:49;;;;;;;3.97;2.90;;;25.50;77.10;;;;;;4910029;29;20526;-71
2022/08/05 08:35:15;;;;;;;3.00;2.80;;;25.50;76.30;;;;;;4918014;29;20424;-71
2022/08/05 08:37:43;;;;;;;3.63;3.33;;;25.50;76.30;;;;;;4918035;29;20515;-71
2022/08/05 08:40:10;;;;;;;4.07;3.30;;;25.50;76.20;;;;;;4917886;29;20416;-71
2022/08/05 08:42:50;;;;;;;3.77;2.73;;;25.40;76.10;;;;;;4916621;29;20492;-71
2022/08/05 08:45:20;;;;;;;3.50;2.97;;;25.40;76.10;;;;;;4917598;29;20460;-71
2022/08/05 08:47:50;;;;;;;3.50;3.00;;;25.40;76.10;;;;;;4901116;29;20889;-72
2022/08/05 08:50:19;;;;;;;5.40;2.80;;;25.40;76.00;;;;;;4900496;29;20442;-70
2022/08/05 08:53:05;;;;;;;5.63;2.90;;;25.40;76.10;;;;;;4916401;29;20486;-71
2022/08/05 08:55:37;;;;;;;3.30;2.70;;;25.40;76.10;;;;;;4916215;29;20537;-71
2022/08/05 08:58:06;;;;;;;4.23;3.00;;;25.40;76.10;;;;;;4885159;29;20476;-72
2022/08/05 09:00:32;;;;;;;4.00;2.57;;;25.40;76.10;;;;;;4900705;29;20451;-71
2022/08/05 09:03:06;;;;;;;3.17;2.57;;;25.30;76.00;;;;;;4916014;29;20528;-70
2022/08/05 09:05:37;;;;;;;3.60;2.30;;;25.30;76.00;;;;;;4900710;29;20424;-70
2022/08/05 09:08:08;;;;;;;3.27;2.47;;;25.30;76.00;;;;;;4915927;29;20425;-70
2022/08/05 09:10:39;;;;;;;3.03;2.33;;;25.30;76.00;;;;;;4900603;29;20425;-70
2022/08/05 09:13:07;;;;;;;3.13;2.57;;;25.30;76.10;;;;;;4900070;29;20528;-71
2022/08/05 09:15:36;;;;;;;3.93;2.40;;;25.30;76.00;;;;;;4915855;29;20488;-70
2022/08/05 09:18:05;;;;;;;2.53;2.17;;;25.30;76.00;;;;;;4915501;29;20448;-70
2022/08/05 09:20:31;;;;;;;2.50;2.30;;;25.20;76.00;;;;;;4915859;29;20453;-70
2022/08/05 09:25:51;;;;;;;3.30;2.40;;;25.20;76.00;;;;;;4963173;28;20476;-74
2022/08/05 09:28:26;;;;;;;2.07;1.77;;;25.20;76.00;;;;;;4934407;29;20429;-74
2022/08/05 09:30:59;;;;;;;4.17;2.00;;;25.20;76.00;;;;;;4935508;29;20803;-75
2022/08/05 09:33:25;;;;;;;2.47;2.20;;;25.20;76.00;;;;;;4953341;29;20502;-75
2022/08/05 09:35:55;;;;;;;2.87;2.67;;;25.20;76.10;;;;;;4953503;29;20451;-75
2022/08/05 09:38:21;;;;;;;3.67;2.43;;;25.20;76.00;;;;;;4953613;28;20533;-75
2022/08/05 09:40:53;;;;;;;7.00;2.13;;;25.20;76.10;;;;;;4953870;29;20549;-75
2022/08/05 09:43:30;;;;;;;3.73;2.67;;;25.10;76.10;;;;;;4953577;29;20522;-75
2022/08/05 09:45:58;;;;;;;3.27;2.20;;;25.10;76.10;;;;;;4953375;29;20439;-75
2022/08/05 09:48:28;;;;;;;3.23;2.20;;;25.10;76.00;;;;;;4952875;29;20477;-75
2022/08/05 09:51:02;;;;;;;3.37;2.37;;;25.10;76.00;;;;;;4953092;29;20967;-74
2022/08/05 09:53:28;;;;;;;2.40;2.17;;;25.10;76.00;;;;;;4952819;28;20455;-75
2022/08/05 09:55:59;;;;;;;3.00;2.20;;;25.10;76.10;;;;;;4950975;29;20517;-75
2022/08/05 09:58:30;;;;;;;3.30;2.30;;;25.10;76.10;;;;;;4968778;28;20411;-77
2022/08/05 10:01:04;;;;;;;2.60;1.80;;;25.10;76.10;;;;;;4953276;29;20442;-74
2022/08/05 10:03:31;;;;;;;2.13;1.90;;;25.10;76.90;;;;;;4968624;28;20952;-74
2022/08/05 10:06:07;;;;;;;3.57;1.93;;;25.00;76.10;;;;;;4954706;28;20529;-74
2022/08/05 10:08:36;;;;;;;3.40;2.40;;;25.00;76.10;;;;;;4968394;28;20458;-74
2022/08/05 10:11:14;;;;;;;3.53;2.40;;;25.00;76.10;;;;;;4952330;29;20442;-73
2022/08/05 10:13:42;;;;;;;2.40;2.20;;;25.00;76.10;;;;;;4953724;28;20446;-73
2022/08/05 10:16:30;;;;;;;2.83;2.00;;;25.00;76.00;;;;;;4952302;29;20474;-73
2022/08/05 10:18:59;;;;;;;3.93;2.27;;;25.00;76.00;;;;;;4953713;29;20423;-74
2022/08/05 10:21:26;;;;;;;2.30;2.10;;;25.00;76.00;;;;;;4968657;28;20448;-73
2022/08/05 10:23:53;;;;;;;2.70;2.47;;;25.00;76.10;;;;;;4953839;29;20573;-73
2022/08/05 10:26:22;;;;;;;2.30;1.90;;;25.00;76.00;;;;;;4968499;28;20482;-73
2022/08/05 10:28:50;;;;;;;3.70;2.23;;;25.00;76.00;;;;;;4968058;28;20451;-74
2022/08/05 10:31:18;;;;;;;3.07;2.30;;;25.00;76.10;;;;;;4969084;28;20454;-71
2022/08/05 10:33:44;;;;;;;4.20;2.30;;;25.00;76.00;;;;;;4952340;28;20521;-73
2022/08/05 10:36:13;;;;;;;3.53;1.87;;;25.00;76.00;;;;;;4968305;28;20502;-73
2022/08/05 10:38:46;;;;;;;2.70;2.23;;;25.00;76.00;;;;;;4967741;28;20800;-73
2022/08/05 10:41:38;;;;;;;3.50;2.30;;;25.00;75.80;;;;;;4934400;29;20427;-74
2022/08/05 10:44:14;;;;;;;2.53;2.10;;;25.00;75.90;;;;;;4942418;29;20451;-73
2022/08/05 10:46:54;;;;;;;2.50;2.30;;;25.00;75.70;;;;;;4952138;29;20432;-73
2022/08/05 10:50:01;;;;;;;4.03;2.00;;;25.00;75.70;;;;;;4938483;29;20548;-72
2022/08/05 10:52:39;;;;;;;2.37;2.03;;;25.00;75.60;;;;;;4951720;28;20484;-72
2022/08/05 10:55:08;;;;;;;4.00;2.47;;;25.00;75.60;;;;;;4956339;28;21011;-72
2022/08/05 10:57:40;;;;;;;4.13;2.53;;;25.00;75.40;;;;;;4953014;29;20925;-72
2022/08/05 11:00:13;;;;;;;3.53;2.10;;;25.00;75.50;;;;;;4968184;28;20474;-72
2022/08/05 11:03:05;;;;;;;3.00;2.60;;;25.00;75.30;;;;;;4967334;28;20463;-72
2022/08/05 11:05:34;;;;;;;4.20;2.90;;;25.00;75.40;;;;;;4938895;29;20958;-72
2022/08/05 11:08:07;;;;;;;3.47;2.50;;;25.00;75.40;;;;;;4971809;28;20843;-71
2022/08/05 11:10:36;;;;;;;5.50;3.17;;;25.00;75.30;;;;;;4956966;28;20427;-72
2022/08/05 11:13:05;;;;;;;3.70;3.10;;;25.00;75.30;;;;;;4955593;29;20804;-72
2022/08/05 11:15:42;;;;;;;3.20;2.90;;;25.00;75.30;;;;;;4955673;29;20458;-72
2022/08/05 11:18:29;;;;;;;3.97;3.50;;;25.00;75.30;;;;;;4957056;29;20418;-71
2022/08/05 11:21:00;;;;;;;3.87;3.10;;;25.00;75.30;;;;;;4956144;29;20430;-72
2022/08/05 11:23:36;;;;;;;4.60;3.70;;;25.00;75.20;;;;;;4939500;29;20796;-72
2022/08/05 11:26:22;;;;;;;3.83;3.03;;;25.00;75.20;;;;;;4969621;28;20594;-72
2022/08/05 11:28:50;;;;;;;3.80;3.50;;;25.00;75.10;;;;;;4939371;29;20434;-72
2022/08/05 11:31:37;;;;;;;3.80;3.50;;;25.10;75.20;;;;;;4956842;29;20434;-72
2022/08/05 11:34:06;;;;;;;4.40;3.80;;;25.10;75.00;;;;;;4955554;29;20706;-72
2022/08/05 11:36:45;;;;;;;4.10;3.80;;;25.10;74.90;;;;;;4956813;29;20406;-72
2022/08/05 11:39:14;;;;;;;4.13;3.60;;;25.10;74.80;;;;;;4955190;29;20422;-72
2022/08/05 11:41:50;;;;;;;4.23;3.87;;;25.10;74.70;;;;;;4955461;29;20513;-72
2022/08/05 11:44:19;;;;;;;3.80;3.50;;;25.10;74.70;;;;;;4971273;28;20736;-72
2022/08/05 11:47:08;;;;;;;4.90;4.17;;;25.20;74.70;;;;;;4946424;28;20415;-72
2022/08/05 11:49:35;;;;;;;4.30;3.70;;;25.10;74.60;;;;;;4955285;29;20463;-72
2022/08/05 11:52:32;;;;;;;6.23;3.90;;;25.20;74.50;;;;;;4948798;29;20588;-72
2022/08/05 11:54:59;;;;;;;3.90;3.60;;;25.20;74.50;;;;;;4952835;29;20570;-72
2022/08/05 11:57:32;;;;;;;4.80;4.27;;;25.20;74.50;;;;;;4956675;29;20415;-74
2022/08/05 12:00:00;;;;;;;4.37;3.97;;;25.20;74.50;;;;;;4971287;28;20499;-74
2022/08/05 12:02:34;;;;;;;4.87;4.00;;;25.20;74.40;;;;;;4954432;29;20991;-74
2022/08/05 12:05:02;;;;;;;5.10;4.43;;;25.20;74.40;;;;;;4955019;29;20467;-73
2022/08/05 12:07:34;;;;;;;4.30;3.90;;;25.20;74.30;;;;;;4956076;28;20427;-74
2022/08/05 12:10:07;;;;;;;4.13;3.73;;;25.20;74.20;;;;;;4935699;29;20806;-74
2022/08/05 12:12:46;;;;;;;4.77;4.33;;;25.20;74.20;;;;;;4967333;28;20478;-74
2022/08/05 12:15:22;;;;;;;4.80;4.30;;;25.20;74.10;;;;;;4955942;29;20790;-74
2022/08/05 12:17:49;;;;;;;5.40;4.90;;;25.20;74.10;;;;;;4969290;28;20481;-74
2022/08/05 12:20:15;;;;;;;6.27;4.70;;;25.30;74.20;;;;;;4966447;28;20454;-74
2022/08/05 12:22:41;;;;;;;4.87;4.47;;;25.30;74.10;;;;;;4954819;29;20443;-74
2022/08/05 12:25:08;;;;;;;5.13;4.67;;;25.30;74.10;;;;;;4970441;28;20825;-75
2022/08/05 12:27:34;;;;;;;4.17;3.87;;;25.30;74.00;;;;;;4954815;29;20493;-74
2022/08/05 12:30:10;;;;;;;5.47;4.97;;;25.30;74.00;;;;;;4954603;29;20514;-74
2022/08/05 12:32:52;;;;;;;4.70;4.40;;;25.30;73.90;;;;;;4955724;29;20469;-75
2022/08/05 12:35:23;;;;;;;4.37;4.00;;;25.30;73.90;;;;;;4951820;29;20473;-75
2022/08/05 12:37:49;;;;;;;5.07;4.57;;;25.30;73.80;;;;;;4953675;29;20434;-74
2022/08/05 12:40:17;;;;;;;4.73;4.17;;;25.40;73.80;;;;;;4954254;29;20522;-75
2022/08/05 12:42:46;;;;;;;4.50;4.17;;;25.40;73.80;;;;;;4954073;29;20597;-74
2022/08/05 12:45:14;;;;;;;5.03;4.63;;;25.40;73.80;;;;;;4970528;28;20430;-74
2022/08/05 12:47:43;;;;;;;5.20;4.80;;;25.40;73.80;;;;;;4955484;28;20413;-74
2022/08/05 12:50:17;;;;;;;4.63;4.20;;;25.40;73.60;;;;;;4955316;29;20469;-74
2022/08/05 12:52:55;;;;;;;4.83;4.40;;;25.40;73.60;;;;;;4955037;29;20478;-75
2022/08/05 12:55:42;;;;;;;4.63;4.23;;;25.50;73.60;;;;;;4954207;29;20473;-75
2022/08/05 12:58:22;;;;;;;5.10;4.70;;;25.50;73.50;;;;;;4969251;28;20415;-75
2022/08/05 13:00:51;;;;;;;5.13;4.73;;;25.50;73.50;;;;;;4953536;29;20804;-75
2022/08/05 13:03:23;;;;;;;5.30;4.80;;;25.50;73.40;;;;;;4969790;28;20446;-74
2022/08/05 13:05:48;;;;;;;4.70;4.20;;;25.50;73.40;;;;;;4969792;28;20420;-74
2022/08/05 13:08:17;;;;;;;5.30;4.87;;;25.50;73.20;;;;;;4954959;29;20426;-74
2022/08/05 13:10:43;;;;;;;4.63;4.23;;;25.50;73.10;;;;;;4954581;29;20575;-74
2022/08/05 13:13:09;;;;;;;5.27;4.73;;;25.50;73.00;;;;;;4953493;29;20467;-74